Flight Track Log - Related Links

Times and Time Zones

All times are in EDT time to prevent confusion due to time zone crossing. See the ASQ4181 flight status page for this flight to view local times or setup timezone preferences in your user account.

Time Position Orientation Groundspeed Altitude Reporting Facility
EDT Latitude Longitude Course Direction KTS MPH feet Rate Location/Type
Sun 03:28:23 PM 40.6344 -74.1967 276° West 171 197 1,800  Level New York Center
Sun 03:29:26 PM 40.6444 -74.2772 279° West 234 269 3,800 2,365 Climbing New York Center
Sun 03:30:40 PM 40.6667 -74.3833 285° West 256 295 7,200 2,758 Climbing New York TRACON
Sun 03:31:00 PM 40.7456 -74.6510 277° West  Level FlightAware Approximate
Sun 03:31:30 PM 40.6850 -74.4603 287° West 256 295 9,500  Level New York Center
Sun 03:32:00 PM 40.7560 -74.7769 276° West  Level FlightAware Approximate
Sun 03:32:32 PM 40.7022 -74.5564 283° West 256 295 11,600  Level New York Center
Sun 03:33:00 PM 40.7656 -74.9030 276° West  Level FlightAware Approximate
Sun 03:33:34 PM 40.7225 -74.6631 284° West 306 352 12,400  Level New York Center
Sun 03:34:36 PM 40.7450 -74.7875 283° West 323 372 14,300 1,632 Climbing New York Center
Sun 03:35:39 PM 40.7667 -74.9131 283° West 332 382 15,800 1,440 Climbing New York Center
Sun 03:36:41 PM 40.7869 -75.0269 283° West 332 382 17,300 1,355 Climbing New York Center
Sun 03:37:43 PM 40.7992 -75.1517 277° West 330 380 18,600 1,258 Climbing New York Center
Sun 03:38:45 PM 40.7639 -75.2747 249° West 337 388 19,900 1,016 Climbing New York Center
Sun 03:39:47 PM 40.7281 -75.3792 246° West 347 399 20,700 1,113 Climbing New York Center
Sun 03:40:49 PM 40.6886 -75.4964 246° West 349 402 22,200 1,536 Climbing New York Center
Sun 03:41:52 PM 40.6414 -75.6358 246° West 350 403 23,900 1,488 Climbing New York Center
Sun 03:42:54 PM 40.6028 -75.7481 246° West 341 392 25,300 1,161 Climbing New York Center
Sun 03:43:56 PM 40.5644 -75.8592 246° West 337 388 26,300 968 Climbing New York Center
Sun 03:44:58 PM 40.5264 -75.9706 246° West 337 388 27,300 1,065 Climbing New York Center
Sun 03:46:00 PM 40.4800 -76.1044 246° West 337 388 28,500 1,123 Climbing New York Center
Sun 03:48:05 PM 40.4044 -76.3206 245° Southwest 326 375 30,800 1,091 Climbing New York Center
Sun 03:49:07 PM 40.3678 -76.4264 246° West 324 373 31,900 1,065 Climbing New York Center
Sun 03:50:09 PM 40.3303 -76.5269 244° Southwest 311 358 33,000 968 Climbing New York Center
Sun 03:51:11 PM 40.2889 -76.6317 243° Southwest 310 357 33,900 774 Climbing New York Center
Sun 03:52:13 PM 40.2764 -76.7386 261° West 304 350 34,600 629 Climbing New York Center
Sun 03:53:15 PM 40.2631 -76.8689 262° West 303 349 35,200 528 Climbing New York Center
Sun 03:54:18 PM 40.2533 -76.9694 263° West 305 351 35,700 384 Climbing New York Center
Sun 03:55:20 PM 40.2433 -77.0797 263° West 304 350 36,000 145 Climbing New York Center
Sun 03:56:22 PM 40.2325 -77.1950 263° West 317 365 36,000  Level New York Center
Sun 03:57:24 PM 40.2217 -77.3214 264° West 328 377 36,000  Level New York Center
Sun 03:58:26 PM 40.2081 -77.4686 263° West 337 388 36,000  Level New York Center
Sun 03:59:28 PM 40.1942 -77.5931 262° West 346 398 36,000  Level New York Center
Sun 04:00:31 PM 40.1833 -77.7183 264° West 347 399 36,000  Level New York Center
Sun 04:01:33 PM 40.1711 -77.8436 263° West 347 399 36,000  Level New York Center
Sun 04:02:35 PM 40.1614 -77.9686 264° West 347 399 36,000  Level New York Center
Sun 04:03:37 PM 40.1664 -78.1167 273° West 344 396 36,000  Level New York Center
Sun 04:04:39 PM 40.1694 -78.2408 272° West 345 397 36,000  Level New York Center
Sun 04:05:41 PM 40.1719 -78.3642 272° West 344 396 36,000  Level New York Center
Sun 04:06:44 PM 40.1747 -78.4872 272° West 343 395 36,000  Level New York Center
Sun 04:07:46 PM 40.1767 -78.6136 271° West 343 395 36,000  Level New York Center
Sun 04:09:10 PM 40.1789 -78.7917 271° West 345 397 36,000  Level Cleveland Center
Sun 04:10:13 PM 40.1803 -78.9381 271° West 340 391 36,000  Level Cleveland Center
Sun 04:11:15 PM 40.1833 -79.0611 272° West 340 391 36,000  Level Cleveland Center
Sun 04:12:17 PM 40.1842 -79.1839 271° West 340 391 36,000  Level Cleveland Center
Sun 04:13:19 PM 40.1867 -79.3064 272° West 340 391 36,000  Level Cleveland Center
Sun 04:14:21 PM 40.1875 -79.4431 271° West 340 391 36,000  Level Cleveland Center
Sun 04:15:23 PM 40.1892 -79.5650 271° West 339 390 36,000  Level Cleveland Center
Sun 04:16:25 PM 40.1897 -79.6875 270° West 338 389 36,000  Level Cleveland Center
Sun 04:17:27 PM 40.1906 -79.8106 271° West 338 389 36,000  Level Cleveland Center
Sun 04:18:29 PM 40.1906 -79.9331 270° West 337 388 36,000  Level Cleveland Center
Sun 04:19:31 PM 40.1911 -80.0561 270° West 337 388 36,000  Level Cleveland Center
Sun 04:20:33 PM 40.1933 -80.1786 271° West 336 387 36,000  Level Cleveland Center
Sun 04:21:36 PM 40.1931 -80.3253 270° West 336 387 36,000  Level Cleveland Center
Sun 04:22:38 PM 40.1928 -80.4458 270° West 332 382 36,000  Level Cleveland Center
Sun 04:23:40 PM 40.1939 -80.5639 271° West 328 377 36,000  Level Cleveland Center
Sun 04:24:42 PM 40.1939 -80.6847 270° West 328 377 36,000  Level Cleveland Center
Sun 04:25:44 PM 40.1939 -80.8036 270° West 328 377 36,000  Level Cleveland Center
Sun 04:26:46 PM 40.1933 -80.9225 270° West 327 376 36,000  Level Cleveland Center
Sun 04:27:48 PM 40.1928 -81.0411 270° West 327 376 36,000  Level Cleveland Center
Sun 04:28:50 PM 40.1919 -81.1861 270° West 330 380 36,000  Level Cleveland Center
Sun 04:29:52 PM 40.1908 -81.3050 269° West 329 379 36,000  Level Cleveland Center
Sun 04:30:54 PM 40.1903 -81.4250 270° West 329 379 36,000  Level Cleveland Center
Sun 04:31:56 PM 40.1897 -81.5428 270° West 328 377 36,000  Level Cleveland Center
Sun 04:32:59 PM 40.1894 -81.6619 270° West 328 377 36,000  Level Cleveland Center
Sun 04:34:01 PM 40.1872 -81.7897 269° West 325 374 36,000  Level Cleveland Center
Sun 04:35:03 PM 40.1858 -81.9064 269° West 324 373 36,000  Level Cleveland Center
Sun 04:35:36 PM 40.1856 -81.9758 270° West 324 373 36,000  Level Indianapolis Center
Sun 04:36:38 PM 40.1839 -82.0897 269° West 320 368 36,000  Level Indianapolis Center
Sun 04:37:40 PM 40.1825 -82.2056 269° West 317 365 36,000  Level Indianapolis Center
Sun 04:38:42 PM 40.1814 -82.3411 269° West 317 365 36,000  Level Indianapolis Center
Sun 04:39:45 PM 40.1789 -82.4572 268° West 317 365 36,000  Level Indianapolis Center
Sun 04:40:47 PM 40.1772 -82.5711 269° West 317 365 36,000  Level Indianapolis Center
Sun 04:41:49 PM 40.1747 -82.6858 268° West 317 365 36,000  Level Indianapolis Center
Sun 04:42:51 PM 40.1733 -82.8014 269° West 317 365 36,000  Level Indianapolis Center
Sun 04:43:53 PM 40.1719 -82.9189 269° West 319 367 36,000  Level Indianapolis Center
Sun 04:44:55 PM 40.1703 -83.0594 269° West 321 369 36,000  Level Indianapolis Center
Sun 04:45:57 PM 40.1656 -83.1778 267° West 323 372 36,000  Level Indianapolis Center
Sun 04:46:59 PM 40.1628 -83.2933 268° West 323 372 36,000  Level Indianapolis Center
Sun 04:48:01 PM 40.1600 -83.4072 268° West 322 371 36,000  Level Indianapolis Center
Sun 04:49:03 PM 40.1572 -83.5197 268° West 319 367 36,000  Level Indianapolis Center
Sun 04:50:05 PM 40.1539 -83.6522 268° West 312 359 36,000  Level Indianapolis Center
Sun 04:51:07 PM 40.1514 -83.7636 268° West 311 358 36,000  Level Indianapolis Center
Sun 04:52:10 PM 40.1475 -83.8772 267° West 311 358 36,000  Level Indianapolis Center
Sun 04:53:12 PM 40.1453 -83.9914 269° West 315 362 36,000  Level Indianapolis Center
Sun 04:54:14 PM 40.1406 -84.1050 267° West 315 362 36,000  Level Indianapolis Center
Sun 04:55:16 PM 40.1369 -84.2444 268° West 318 366 36,000  Level Indianapolis Center
Sun 04:56:18 PM 40.1331 -84.3606 268° West 318 366 36,000  Level Indianapolis Center
Sun 04:57:20 PM 40.1300 -84.4775 268° West 319 367 36,000  Level Indianapolis Center
Sun 04:58:22 PM 40.1281 -84.5928 269° West 319 367 36,000  Level Indianapolis Center
Sun 04:59:24 PM 40.1244 -84.7061 268° West 318 366 36,000  Level Indianapolis Center
Sun 05:00:26 PM 40.1192 -84.8408 267° West 313 360 36,000  Level Indianapolis Center
Sun 05:01:28 PM 40.1169 -84.9406 268° West 313 360 36,000  Level Indianapolis Center
Sun 05:02:30 PM 40.1100 -85.0736 266° West 310 357 36,000  Level Indianapolis Center
Sun 05:03:33 PM 40.1061 -85.1856 267° West 310 357 36,000  Level Indianapolis Center
Sun 05:04:35 PM 40.1019 -85.2969 267° West 310 357 36,000  Level Indianapolis Center
Sun 05:05:37 PM 40.0978 -85.4075 267° West 310 357 36,000  Level Indianapolis Center
Sun 05:06:39 PM 40.0925 -85.5186 266° West 309 356 36,000  Level Indianapolis Center
Sun 05:07:41 PM 40.0872 -85.6308 267° West 309 356 36,000  Level Indianapolis Center
Sun 05:08:43 PM 40.0814 -85.7672 267° West 313 360 36,000  Level Indianapolis Center
Sun 05:09:45 PM 40.0764 -85.8814 267° West 313 360 36,000  Level Indianapolis Center
Sun 05:10:47 PM 40.0711 -85.9950 267° West 314 361 36,000  Level Indianapolis Center
Sun 05:11:49 PM 40.0661 -86.1072 267° West 314 361 36,000  Level Indianapolis Center
Sun 05:12:51 PM 40.0600 -86.2194 266° West 314 361 36,000  Level Indianapolis Center
Sun 05:13:53 PM 40.0536 -86.3525 266° West 313 360 36,000  Level Indianapolis Center
Sun 05:14:55 PM 40.0481 -86.4633 266° West 313 360 36,000  Level Indianapolis Center
Sun 05:15:58 PM 40.0422 -86.5733 266° West 311 358 36,000  Level Indianapolis Center
Sun 05:17:00 PM 40.0372 -86.6850 267° West 311 358 36,000  Level Indianapolis Center
Sun 05:18:02 PM 40.0300 -86.7958 265° West 311 358 36,000  Level Indianapolis Center
Sun 05:19:04 PM 40.0233 -86.9308 266° West 310 357 36,000  Level Indianapolis Center
Sun 05:20:06 PM 40.0169 -87.0414 266° West 310 357 36,000  Level Indianapolis Center
Sun 05:21:08 PM 40.0111 -87.1536 266° West 310 357 36,000  Level Indianapolis Center
Sun 05:22:10 PM 40.0044 -87.2664 266° West 311 358 36,000  Level Indianapolis Center
Sun 05:23:12 PM 39.9981 -87.3786 266° West 311 358 36,000  Level Indianapolis Center
Sun 05:24:14 PM 39.9892 -87.5139 265° West 312 359 36,000  Level Indianapolis Center
Sun 05:25:16 PM 39.9833 -87.6269 266° West 312 359 36,000  Level Indianapolis Center
Sun 05:26:03 PM 39.9786 -87.7183 266° West 313 360 36,000  Level Chicago Center
Sun 05:27:05 PM 39.9714 -87.8322 265° West 314 361 36,000  Level Chicago Center
Sun 05:29:17 PM 39.9517 -88.0933 264° West 318 366 36,000  Level Kansas City Center
Sun 05:30:19 PM 39.9450 -88.2078 266° West 321 369 36,000  Level Kansas City Center
Sun 05:31:21 PM 39.9372 -88.3242 265° West 320 368 36,000  Level Kansas City Center
Sun 05:32:23 PM 39.9294 -88.4403 265° West 321 369 36,000  Level Kansas City Center
Sun 05:33:25 PM 39.9211 -88.5567 265° West 320 368 36,000  Level Kansas City Center
Sun 05:34:27 PM 39.9158 -88.6719 267° West 321 369 36,000  Level Kansas City Center
Sun 05:35:29 PM 39.9064 -88.7886 264° West 321 369 36,000  Level Kansas City Center
Sun 05:36:31 PM 39.8972 -88.9300 265° West 323 372 36,000  Level Kansas City Center
Sun 05:37:33 PM 39.8881 -89.0469 264° West 323 372 36,000  Level Kansas City Center
Sun 05:38:35 PM 39.8800 -89.1644 265° West 324 373 36,000  Level Kansas City Center
Sun 05:39:38 PM 39.8711 -89.2814 264° West 324 373 36,000  Level Kansas City Center
Sun 05:40:40 PM 39.8617 -89.4006 264° West 325 374 36,000  Level Kansas City Center
Sun 05:41:42 PM 39.8525 -89.5183 264° West 325 374 36,000  Level Kansas City Center
Sun 05:42:44 PM 39.8436 -89.6356 264° West 326 375 36,000  Level Kansas City Center
Sun 05:43:46 PM 39.8414 -89.7781 269° West 326 375 36,000  Level Kansas City Center
Sun 05:44:48 PM 39.8428 -89.8967 271° West 326 375 36,000  Level Kansas City Center
Sun 05:45:50 PM 39.8442 -90.0183 271° West 329 379 36,000  Level Kansas City Center
Sun 05:46:52 PM 39.8450 -90.1392 271° West 330 380 36,000  Level Kansas City Center
Sun 05:47:54 PM 39.8456 -90.2603 270° West 330 380 36,000  Level Kansas City Center
Sun 05:48:56 PM 39.8467 -90.3797 271° West 330 380 36,000  Level Kansas City Center
Sun 05:49:58 PM 39.8472 -90.5250 270° West 331 381 36,000  Level Kansas City Center
Sun 05:51:00 PM 39.8478 -90.6458 270° West 331 381 36,000  Level Kansas City Center
Sun 05:52:02 PM 39.8486 -90.7672 271° West 332 382 36,000  Level Kansas City Center
Sun 05:53:04 PM 39.8478 -90.8886 270° West 333 383 36,000  Level Kansas City Center
Sun 05:54:06 PM 39.8489 -91.0017 271° West 334 384 36,000  Level Kansas City Center
Sun 05:55:08 PM 39.8486 -91.1478 270° West 335 386 36,000  Level Kansas City Center
Sun 05:56:10 PM 39.8478 -91.2700 270° West 338 389 36,000  Level Kansas City Center
Sun 05:57:12 PM 39.8403 -91.3919 265° West 338 389 36,000  Level Kansas City Center
Sun 05:58:14 PM 39.8308 -91.5139 264° West 339 390 36,000  Level Kansas City Center
Sun 05:59:16 PM 39.8222 -91.6353 265° West 339 390 36,000  Level Kansas City Center
Sun 06:00:19 PM 39.8106 -91.7828 264° West 339 390 36,000  Level Kansas City Center
Sun 06:02:23 PM 39.7917 -92.0258 264° West 340 391 36,000  Level Kansas City Center
Sun 06:03:25 PM 39.7819 -92.1522 264° West 340 391 36,000 -48 Level Kansas City Center
Sun 06:04:27 PM 39.7725 -92.2700 264° West 340 391 35,900 -871 Descending Kansas City Center
Sun 06:05:29 PM 39.7606 -92.4156 264° West 340 391 34,200 -1,548 Descending Kansas City Center
Sun 06:06:31 PM 39.7508 -92.5350 264° West 339 390 32,700 -1,403 Descending Kansas City Center
Sun 06:07:33 PM 39.7400 -92.6561 263° West 338 389 31,300 -1,403 Descending Kansas City Center
Sun 06:08:35 PM 39.7264 -92.7831 262° West 347 399 29,800 -1,790 Descending Kansas City Center
Sun 06:09:37 PM 39.7069 -92.9094 259° West 353 406 27,600 -2,323 Descending Kansas City Center
Sun 06:10:39 PM 39.6886 -93.0397 260° West 363 418 25,000 -2,758 Descending Kansas City Center
Sun 06:11:41 PM 39.6658 -93.1992 260° West 370 426 21,900 -2,565 Descending Kansas City Center
Sun 06:12:43 PM 39.6467 -93.3322 259° West 373 429 19,700 -2,081 Descending Kansas City Center
Sun 06:13:45 PM 39.6267 -93.4689 259° West 381 438 17,600 -2,081 Descending Kansas City Center
Sun 06:14:47 PM 39.6067 -93.6061 259° West 389 448 15,400 -2,177 Descending Kansas City Center
Sun 06:15:49 PM 39.5847 -93.7544 259° West 372 428 13,100 -1,645 Descending Kansas City Center
Sun 06:16:51 PM 39.5675 -93.8778 260° West 366 421 12,000 -528 Descending Kansas City Center
Sun 06:17:54 PM 39.5544 -94.0197 263° West 357 411 12,000 -432 Level Kansas City Center
Sun 06:18:56 PM 39.5636 -94.1333 276° West 334 384 11,100 -1,161 Descending Kansas City Center
Sun 06:19:58 PM 39.5319 -94.2361 248° West 285 328 9,600 -1,548 Descending Kansas City Center
Sun 06:21:00 PM 39.5008 -94.3342 248° West 286 329 7,900 -1,452 Descending Kansas City Center
Sun 06:22:02 PM 39.4750 -94.4319 251° West 277 319 6,600 -1,355 Descending Kansas City Center
Sun 06:23:04 PM 39.4492 -94.5228 250° West 278 320 5,100 -1,355 Descending Kansas City Center
Sun 06:24:06 PM 39.4203 -94.6042 245° Southwest 262 302 3,800 -1,122 Descending Kansas City Center
Sun 06:25:07 PM 39.3786 -94.6722 232° Southwest 210 242 2,800 -1,024 Descending Kansas City Center
Sun 06:26:09 PM 39.3433 -94.6911 202° Southwest 144 166 1,700 -871 Descending Kansas City Center
Sun 06:27:11 PM 39.3069 -94.7014 192° South 142 163 1,000 -677 Descending Kansas City Center

Login

Don't have an account? Register now (free) for customized features, flight alerts, and more!